Terminal Aerodrome Forecast
Issued by NWS

Home | Current Version | Previous Version | Text Only | Print | Product List | Glossary On
Versions: 1 2 3 4 5 6 7 8 9 10 11 12 13 14 15 16 17 18
000
FTUS43 KAPX 210100 AAA
TAFAPN
TAF AMD
KAPN 210123Z 2101/2124 24006KT P6SM VCSH SCT025 OVC050
      TEMPO 2101/2103 4SM TSRA BR BKN025CB
     FM210400 VRB03KT P6SM BKN015 OVC030
     FM211400 35011G20KT 6SM -SHRA OVC025=

USA.gov is the U.S. government's official web portal to all federal, state and local government web resources and services.